Terminal Aerodrome Forecast
Issued by NWS

Home | Current Version | Previous Version | Text Only | Print | Product List | Glossary On
Versions: 1 2 3 4 5 6 7 8 9 10 11 12 13 14 15 16 17 18 19 20 21
000
FTUS45 KABQ 010600 AAA
TAFTCC
TAF AMD
KTCC 010634Z 0107/0206 36007KT 4SM BR SCT008
      TEMPO 0107/0111 1/2SM FG BKN007
     FM011100 36007KT 4SM BR SCT008
      TEMPO 0111/0115 1/2SM FG BKN007
     FM011600 03009KT P6SM SCT030
     FM011900 07006KT P6SM FEW030=

USA.gov is the U.S. government's official web portal to all federal, state and local government web resources and services.